Time;durP1;ratioP1;P1;durP2;ratioP2;P2;SDS_P1;SDS_P2;PMS_P1;PMS_P2;Temp;Humidity;BMP_temperature;BMP_pressure;BME280_temperature;BME280_humidity;BME280_pressure;Samples;Min_cycle;Max_cycle;Signal;HPM_P1;HPM_P2
2022/04/15 00:01:16;;;;;;;1.45;0.90;;;;;;;19.59;48.72;102499.59;5146456;27;20565;-58
2022/04/15 00:03:43;;;;;;;1.25;0.93;;;;;;;19.58;48.58;102503.25;5146585;27;20123;-59
2022/04/15 00:06:10;;;;;;;1.02;0.90;;;;;;;19.55;48.33;102492.75;5146121;27;20028;-59
2022/04/15 00:08:36;;;;;;;0.98;0.77;;;;;;;19.56;48.29;102503.41;5144899;27;20508;-58
2022/04/15 00:11:01;;;;;;;0.70;0.70;;;;;;;19.56;48.51;102494.47;5146598;27;20549;-59
2022/04/15 00:13:29;;;;;;;1.23;1.02;;;;;;;19.53;48.49;102494.72;5146253;27;20023;-59
2022/04/15 00:16:04;;;;;;;1.10;1.00;;;;;;;19.55;48.46;102498.16;5146351;27;20027;-59
2022/04/15 00:18:31;;;;;;;1.13;0.95;;;;;;;19.54;48.35;102509.91;5145730;27;20574;-58
2022/04/15 00:20:56;;;;;;;1.30;1.10;;;;;;;19.54;48.02;102504.50;5146163;27;20024;-57
2022/04/15 00:23:24;;;;;;;0.75;0.75;;;;;;;19.53;48.52;102500.13;5145770;27;20023;-59
2022/04/15 00:25:50;;;;;;;0.85;0.80;;;;;;;19.54;48.45;102504.50;5145965;27;20023;-58
2022/04/15 00:28:15;;;;;;;1.20;0.90;;;;;;;19.53;48.33;102502.81;5145692;27;20023;-57
2022/04/15 00:30:41;;;;;;;1.23;0.93;;;;;;;19.50;48.22;102493.16;5146174;27;20485;-58
2022/04/15 00:33:06;;;;;;;0.60;0.60;;;;;;;19.53;47.73;102500.13;5145180;27;20022;-58
2022/04/15 00:35:31;;;;;;;0.90;0.85;;;;;;;19.52;48.15;102498.41;5146188;27;20033;-58
2022/04/15 00:37:57;;;;;;;0.98;0.85;;;;;;;19.52;47.88;102501.97;5145581;27;20503;-58
2022/04/15 00:40:22;;;;;;;1.05;0.95;;;;;;;19.51;47.75;102500.25;5145747;27;20065;-58
2022/04/15 00:42:47;;;;;;;0.60;0.60;;;;;;;19.48;48.20;102500.50;5145133;27;20015;-58
2022/04/15 00:45:12;;;;;;;1.00;0.73;;;;;;;19.48;48.10;102508.59;5145202;27;20045;-58
2022/04/15 00:47:44;;;;;;;0.85;0.80;;;;;;;19.49;48.12;102513.84;5144943;27;20030;-58
2022/04/15 00:50:09;;;;;;;1.23;1.13;;;;;;;19.49;47.71;102504.91;5145802;27;20038;-59
2022/04/15 00:52:37;;;;;;;0.70;0.70;;;;;;;19.47;47.92;102509.59;5145406;27;20031;-59
2022/04/15 00:55:04;;;;;;;1.20;1.00;;;;;;;19.48;47.74;102508.59;5133962;27;20035;-59
2022/04/15 00:57:31;;;;;;;0.75;0.75;;;;;;;19.48;47.77;102508.59;5126325;27;20027;-58
2022/04/15 00:59:58;;;;;;;0.80;0.80;;;;;;;19.47;47.68;102515.84;5126961;27;20033;-58
2022/04/15 01:02:24;;;;;;;1.35;1.10;;;;;;;19.46;47.91;102514.16;5144825;27;20114;-58
2022/04/15 01:04:52;;;;;;;1.25;1.02;;;;;;;19.46;47.70;102511.44;5145125;27;20093;-58
2022/04/15 01:07:19;;;;;;;1.20;0.88;;;;;;;19.47;47.84;102513.16;5145025;27;20027;-58
2022/04/15 01:09:46;;;;;;;1.67;0.90;;;;;;;19.46;47.59;102513.31;5145192;27;20110;-58
2022/04/15 01:12:11;;;;;;;1.70;1.20;;;;;;;19.46;47.83;102518.69;5126379;27;20042;-58
2022/04/15 01:14:38;;;;;;;1.35;0.95;;;;;;;19.45;47.82;102519.66;5144934;27;20023;-58
2022/04/15 01:17:03;;;;;;;1.08;0.98;;;;;;;19.44;47.74;102520.66;5144592;27;20019;-58
2022/04/15 01:19:29;;;;;;;0.80;0.70;;;;;;;19.44;47.58;102517.97;5126579;27;20066;-58
2022/04/15 01:21:55;;;;;;;0.98;0.90;;;;;;;19.44;47.76;102526.03;5126475;27;20031;-59
2022/04/15 01:24:20;;;;;;;0.90;0.70;;;;;;;19.43;47.49;102524.34;5144988;27;20354;-58
2022/04/15 01:26:46;;;;;;;1.45;0.90;;;;;;;19.41;47.74;102524.50;5134551;27;20126;-58
2022/04/15 01:29:11;;;;;;;0.77;0.77;;;;;;;19.41;47.61;102523.59;5124418;28;20027;-58
2022/04/15 01:31:36;;;;;;;0.95;0.90;;;;;;;19.41;47.61;102519.09;5124090;28;20055;-58
2022/04/15 01:34:02;;;;;;;1.02;0.88;;;;;;;19.40;47.37;102521.91;5123946;28;20035;-58
2022/04/15 01:36:27;;;;;;;1.00;0.77;;;;;;;19.40;47.49;102521.91;5123923;28;20023;-58
2022/04/15 01:38:54;;;;;;;1.30;0.77;;;;;;;19.40;47.69;102530.84;5139510;27;20058;-58
2022/04/15 01:41:21;;;;;;;1.45;0.77;;;;;;;19.39;47.68;102526.44;5126030;27;20026;-58
2022/04/15 01:43:48;;;;;;;1.00;0.80;;;;;;;19.39;47.69;102534.53;5144270;27;20102;-58
2022/04/15 01:46:14;;;;;;;0.70;0.70;;;;;;;19.39;47.25;102531.84;5144230;27;20080;-58
2022/04/15 01:48:39;;;;;;;0.73;0.73;;;;;;;19.38;47.63;102529.28;5144493;27;20023;-57
2022/04/15 01:51:04;;;;;;;0.90;0.82;;;;;;;19.34;47.31;102528.69;5144361;27;20031;-58
2022/04/15 01:53:29;;;;;;;1.17;1.05;;;;;;;19.37;47.30;102536.53;5144533;27;20037;-58
2022/04/15 01:55:54;;;;;;;2.13;1.10;;;;;;;19.38;47.49;102537.38;5144467;27;20053;-58
2022/04/15 01:58:20;;;;;;;0.77;0.77;;;;;;;19.35;47.29;102537.63;5144067;27;20507;-58
2022/04/15 02:00:45;;;;;;;0.80;0.80;;;;;;;19.32;47.44;102532.50;5143812;27;20035;-58
2022/04/15 02:03:10;;;;;;;0.65;0.65;;;;;;;19.34;47.54;102539.47;5144068;27;20049;-58
2022/04/15 02:05:35;;;;;;;0.77;0.77;;;;;;;19.34;47.63;102538.63;5144277;28;20390;-58
2022/04/15 02:08:01;;;;;;;1.13;0.90;;;;;;;19.31;47.59;102539.72;5144036;28;20041;-58
2022/04/15 02:10:26;;;;;;;1.00;0.82;;;;;;;19.31;47.46;102542.44;5144361;28;20035;-58
2022/04/15 02:12:51;;;;;;;0.60;0.60;;;;;;;19.32;47.16;102546.84;5143817;28;20034;-58
2022/04/15 02:15:16;;;;;;;0.85;0.80;;;;;;;19.31;47.29;102545.13;5144568;28;20027;-58
2022/04/15 02:17:41;;;;;;;1.13;0.85;;;;;;;19.28;47.29;102539.13;5143896;28;20557;-58
2022/04/15 02:20:10;;;;;;;1.15;0.80;;;;;;;19.31;47.45;102545.13;5126079;28;20030;-58
2022/04/15 02:22:35;;;;;;;0.98;0.77;;;;;;;19.29;47.54;102541.72;5125642;28;20058;-58
2022/04/15 02:25:01;;;;;;;0.80;0.80;;;;;;;19.30;47.41;102550.66;5143870;28;20519;-58
2022/04/15 02:27:26;;;;;;;1.40;0.80;;;;;;;19.29;47.40;102551.66;5143508;28;20138;-57
2022/04/15 02:29:51;;;;;;;0.77;0.77;;;;;;;19.28;47.23;102558.88;5144294;28;20027;-58
2022/04/15 02:32:16;;;;;;;0.70;0.70;;;;;;;19.28;47.16;102550.78;5143454;28;20034;-58
2022/04/15 02:34:41;;;;;;;0.88;0.70;;;;;;;19.27;47.31;102559.00;5125617;28;20070;-58
2022/04/15 02:37:07;;;;;;;1.15;1.05;;;;;;;19.27;47.21;102559.00;5143711;28;20019;-57
2022/04/15 02:39:32;;;;;;;1.15;0.90;;;;;;;19.26;47.38;102560.00;5143808;28;20078;-58
2022/04/15 02:41:58;;;;;;;0.80;0.80;;;;;;;19.25;47.24;102561.84;5143449;28;20027;-59
2022/04/15 02:44:23;;;;;;;0.90;0.80;;;;;;;19.24;47.31;102562.81;5108509;28;20023;-58
2022/04/15 02:46:49;;;;;;;1.10;0.90;;;;;;;19.22;47.33;102560.25;5142816;28;20027;-58
2022/04/15 02:49:14;;;;;;;1.38;0.80;;;;;;;19.24;47.44;102565.50;5142246;28;20026;-58
2022/04/15 02:51:39;;;;;;;1.52;0.95;;;;;;;19.23;47.02;102558.41;5143659;28;20031;-58
2022/04/15 02:54:05;;;;;;;1.08;0.95;;;;;;;19.20;47.00;102559.53;5125528;28;20033;-58
2022/04/15 02:56:30;;;;;;;1.23;0.70;;;;;;;19.21;47.08;102563.09;5144144;28;20029;-57
2022/04/15 02:58:56;;;;;;;0.80;0.80;;;;;;;19.22;47.05;102570.19;5143299;28;20058;-58
2022/04/15 03:01:21;;;;;;;0.90;0.90;;;;;;;19.18;47.26;102560.66;5125266;28;20050;-57
2022/04/15 03:03:46;;;;;;;0.85;0.70;;;;;;;19.21;46.69;102571.19;5125275;28;20027;-60
2022/04/15 03:06:11;;;;;;;0.73;0.70;;;;;;;19.19;47.04;102567.75;5143516;28;20507;-57
2022/04/15 03:08:36;;;;;;;0.82;0.82;;;;;;;19.12;47.20;102555.78;5143781;28;20476;-60
2022/04/15 03:11:02;;;;;;;0.80;0.70;;;;;;;19.18;47.10;102574.13;5126662;27;20035;-59
2022/04/15 03:13:27;;;;;;;2.10;0.73;;;;;;;19.18;46.92;102576.81;5147242;27;20029;-59
2022/04/15 03:15:53;;;;;;;1.10;0.90;;;;;;;19.17;46.92;102575.13;5147575;27;20031;-58
2022/04/15 03:18:18;;;;;;;0.70;0.70;;;;;;;19.16;46.92;102565.34;5147136;27;20020;-58
2022/04/15 03:20:43;;;;;;;0.80;0.70;;;;;;;19.16;46.87;102570.72;5147231;27;20080;-58
2022/04/15 03:23:09;;;;;;;1.05;0.80;;;;;;;19.16;46.77;102576.13;5128452;27;20026;-58
2022/04/15 03:25:34;;;;;;;0.90;0.90;;;;;;;19.14;46.84;102569.97;5147607;27;20031;-58
2022/04/15 03:28:00;;;;;;;0.80;0.70;;;;;;;19.15;47.26;102577.06;5146618;27;20027;-58
2022/04/15 03:30:26;;;;;;;0.80;0.80;;;;;;;19.14;46.98;102572.69;5147343;27;20029;-58
2022/04/15 03:32:52;;;;;;;0.95;0.70;;;;;;;19.13;47.07;102571.81;5146852;27;20039;-57
2022/04/15 03:35:21;;;;;;;0.70;0.70;;;;;;;19.13;47.01;102570.97;5128640;27;20098;-58
2022/04/15 03:37:50;;;;;;;1.00;0.90;;;;;;;19.12;47.10;102572.81;5128232;27;20018;-58
2022/04/15 03:40:16;;;;;;;0.90;0.80;;;;;;;19.11;46.70;102575.63;5146720;27;20459;-58
2022/04/15 03:42:48;;;;;;;1.10;1.00;;;;;;;19.11;46.99;102579.19;5146536;27;20027;-58
2022/04/15 03:45:18;;;;;;;0.70;0.70;;;;;;;19.10;46.87;102576.63;5128540;27;20023;-58
2022/04/15 03:47:43;;;;;;;;;;;;;;;19.06;47.05;102578.72;5147231;27;20030;-58
2022/04/15 03:50:10;;;;;;;1.10;0.70;;;;;;;19.06;47.17;102583.25;5146644;27;19911;-58
2022/04/15 03:52:42;;;;;;;1.25;0.75;;;;;;;19.06;46.71;102583.25;5146658;27;20051;-58
2022/04/15 03:55:08;;;;;;;0.70;0.70;;;;;;;19.06;46.83;102586.81;5146847;27;20083;-58
2022/04/15 03:57:34;;;;;;;0.88;0.70;;;;;;;19.06;46.69;102591.34;5146367;27;20023;-58
2022/04/15 03:59:59;;;;;;;0.98;0.77;;;;;;;19.04;46.87;102585.25;5146719;27;20027;-59
2022/04/15 04:02:24;;;;;;;0.60;0.60;;;;;;;19.03;46.94;102591.59;5146327;27;20027;-58
2022/04/15 04:04:49;;;;;;;0.70;0.70;;;;;;;19.03;46.92;102589.78;5146736;27;20030;-58
2022/04/15 04:07:15;;;;;;;0.90;0.90;;;;;;;19.03;46.88;102586.19;5146416;27;20396;-58
2022/04/15 04:09:40;;;;;;;0.80;0.70;;;;;;;19.02;46.61;102590.75;5128027;27;20476;-58
2022/04/15 04:12:06;;;;;;;0.70;0.70;;;;;;;19.03;46.81;102591.59;5145962;27;20019;-58
2022/04/15 04:14:31;;;;;;;0.98;0.88;;;;;;;19.02;46.79;102597.97;5146594;27;20035;-58
2022/04/15 04:16:57;;;;;;;0.95;0.80;;;;;;;19.02;46.58;102597.97;5145944;27;20027;-57
2022/04/15 04:19:22;;;;;;;0.63;0.63;;;;;;;18.98;46.46;102600.91;5145805;27;20031;-58
2022/04/15 04:21:47;;;;;;;0.65;0.60;;;;;;;19.00;46.76;102597.25;5145817;27;20057;-58
2022/04/15 04:24:12;;;;;;;0.80;0.80;;;;;;;19.00;46.75;102606.19;5145565;27;20048;-58
2022/04/15 04:26:37;;;;;;;1.27;0.80;;;;;;;18.99;46.76;102601.81;5146187;27;20053;-58
2022/04/15 04:29:03;;;;;;;1.10;0.95;;;;;;;18.98;46.18;102606.31;5145614;27;20087;-58
2022/04/15 04:31:28;;;;;;;0.70;0.70;;;;;;;18.98;46.50;102608.16;5126605;27;20031;-58
2022/04/15 04:33:53;;;;;;;0.80;0.70;;;;;;;18.96;46.74;102608.28;5145330;27;20078;-58
2022/04/15 04:36:18;;;;;;;1.00;0.90;;;;;;;18.95;46.31;102611.97;5145279;27;20086;-57
2022/04/15 04:38:44;;;;;;;0.88;0.80;;;;;;;18.96;46.33;102613.69;5144892;27;20042;-58
2022/04/15 04:41:09;;;;;;;0.70;0.70;;;;;;;18.95;46.56;102620.06;5144061;27;20026;-59
2022/04/15 04:43:34;;;;;;;0.93;0.70;;;;;;;18.91;46.60;102610.50;5130280;27;20027;-61
2022/04/15 04:45:59;;;;;;;1.35;0.80;;;;;;;18.93;46.45;102623.84;5139777;27;20029;-60
2022/04/15 04:48:24;;;;;;;0.80;0.80;;;;;;;18.93;46.60;102623.84;5145147;27;20027;-58
2022/04/15 04:50:50;;;;;;;0.70;0.70;;;;;;;18.93;46.40;102626.56;5130477;27;20026;-58
2022/04/15 04:53:16;;;;;;;0.95;0.88;;;;;;;18.92;46.61;102630.25;5118284;28;20028;-58
2022/04/15 04:55:41;;;;;;;0.70;0.70;;;;;;;18.92;46.40;102630.25;5144869;27;20128;-58
2022/04/15 04:58:06;;;;;;;0.60;0.60;;;;;;;18.90;46.58;102633.06;5144493;27;20019;-58
2022/04/15 05:00:32;;;;;;;1.17;1.08;;;;;;;18.89;46.61;102641.25;5145029;27;20019;-59
2022/04/15 05:02:57;;;;;;;0.80;0.65;;;;;;;18.89;46.42;102641.25;5144142;27;20023;-56
2022/04/15 05:05:23;;;;;;;0.77;0.70;;;;;;;18.89;46.37;102644.81;5140783;27;20052;-58
2022/04/15 05:07:48;;;;;;;0.70;0.68;;;;;;;18.89;46.43;102647.50;5144771;27;20102;-60
2022/04/15 05:10:13;;;;;;;0.80;0.80;;;;;;;18.87;46.42;102644.09;5145096;27;20031;-59
2022/04/15 05:12:39;;;;;;;0.73;0.73;;;;;;;18.88;46.54;102653.88;5128169;27;20039;-59
2022/04/15 05:15:04;;;;;;;0.93;0.80;;;;;;;18.89;46.71;102662.81;5124015;27;20038;-59
2022/04/15 05:17:30;;;;;;;0.70;0.70;;;;;;;18.88;46.60;102659.28;5143763;27;20016;-59
2022/04/15 05:19:55;;;;;;;0.85;0.77;;;;;;;18.88;46.64;102669.19;5134648;27;20023;-58
2022/04/15 05:22:22;;;;;;;0.68;0.68;;;;;;;18.87;46.22;102665.66;5123922;28;20019;-59
2022/04/15 05:24:48;;;;;;;1.33;0.80;;;;;;;18.85;46.35;102664.06;5144077;27;20042;-59
2022/04/15 05:27:13;;;;;;;0.80;0.80;;;;;;;18.86;46.50;102672.03;5142737;27;20104;-58
2022/04/15 05:29:38;;;;;;;0.70;0.70;;;;;;;18.84;46.41;102668.59;5127139;27;20034;-56
2022/04/15 05:32:03;;;;;;;0.90;0.90;;;;;;;18.85;46.55;102674.84;5134487;27;20026;-59
2022/04/15 05:34:29;;;;;;;0.80;0.80;;;;;;;18.85;46.57;102674.84;5104743;28;20044;-59
2022/04/15 05:36:54;;;;;;;0.73;0.73;;;;;;;18.85;46.36;102685.63;5130172;27;20424;-58
2022/04/15 05:39:19;;;;;;;0.80;0.73;;;;;;;18.85;46.48;102685.63;5125414;27;20054;-58
2022/04/15 05:41:44;;;;;;;1.10;0.80;;;;;;;18.83;46.64;102683.06;5143533;27;20035;-55
2022/04/15 05:44:12;;;;;;;1.10;0.80;;;;;;;18.84;46.62;102694.69;5126475;27;20023;-58
2022/04/15 05:46:38;;;;;;;0.95;0.95;;;;;;;18.84;46.66;102694.69;5143773;27;20026;-58
2022/04/15 05:49:05;;;;;;;1.02;0.80;;;;;;;18.83;46.64;102693.84;5138273;27;20019;-58
2022/04/15 05:51:30;;;;;;;0.60;0.60;;;;;;;18.83;46.60;102691.13;5123724;28;20039;-58
2022/04/15 05:53:55;;;;;;;0.70;0.70;;;;;;;18.82;46.32;102700.22;5123856;28;20518;-58
2022/04/15 05:56:21;;;;;;;0.65;0.65;;;;;;;18.82;46.41;102708.31;5125600;27;20023;-57
2022/04/15 05:58:46;;;;;;;0.60;0.60;;;;;;;18.81;46.39;102711.94;5137729;27;20035;-57
2022/04/15 06:01:11;;;;;;;0.98;0.80;;;;;;;18.82;46.35;102716.38;5105241;28;20019;-58
2022/04/15 06:03:37;;;;;;;1.33;0.80;;;;;;;18.81;46.26;102717.34;5123387;28;20032;-58
2022/04/15 06:06:03;;;;;;;0.95;0.70;;;;;;;18.81;46.31;102716.50;5123530;27;20059;-58
2022/04/15 06:08:28;;;;;;;0.80;0.70;;;;;;;18.81;46.55;102724.56;5123566;28;20462;-58
2022/04/15 06:10:54;;;;;;;0.80;0.80;;;;;;;18.79;46.42;102726.56;5105703;28;20042;-57
2022/04/15 06:13:22;;;;;;;0.70;0.70;;;;;;;18.80;46.34;102723.72;5123274;28;20022;-57
2022/04/15 06:15:53;;;;;;;0.75;0.65;;;;;;;18.79;46.42;102735.50;5139043;27;20045;-60
2022/04/15 06:18:36;;;;;;;0.75;0.73;;;;;;;18.78;46.50;102727.53;5138814;28;20024;-61
2022/04/15 06:21:03;;;;;;;0.95;0.73;;;;;;;18.80;46.16;102730.94;5143885;28;20023;-58
2022/04/15 06:23:28;;;;;;;1.23;0.85;;;;;;;18.79;46.54;102732.78;5144086;28;20050;-58
2022/04/15 06:25:53;;;;;;;0.70;0.68;;;;;;;18.77;46.35;102733.88;5143796;28;20034;-58
2022/04/15 06:28:21;;;;;;;0.73;0.73;;;;;;;18.76;46.40;102735.72;5143668;28;20034;-59
2022/04/15 06:30:47;;;;;;;0.93;0.80;;;;;;;18.79;46.34;102734.63;5129814;28;20032;-58
2022/04/15 06:33:15;;;;;;;0.77;0.63;;;;;;;18.79;46.55;102742.72;5122853;28;20062;-58
2022/04/15 06:35:40;;;;;;;0.70;0.63;;;;;;;18.76;46.53;102738.41;5126148;28;20054;-60
2022/04/15 06:38:05;;;;;;;0.80;0.65;;;;;;;18.78;46.42;102743.72;5143367;28;20267;-57
2022/04/15 06:40:31;;;;;;;0.80;0.80;;;;;;;18.76;46.56;102749.19;5125404;28;20062;-58
2022/04/15 06:42:56;;;;;;;0.80;0.80;;;;;;;18.76;46.55;102751.91;5143549;28;20027;-58
2022/04/15 06:45:21;;;;;;;0.60;0.60;;;;;;;18.75;46.31;102744.78;5143880;27;20030;-58
2022/04/15 06:47:46;;;;;;;0.80;0.70;;;;;;;18.76;46.27;102749.19;5147266;27;20023;-61
2022/04/15 06:50:11;;;;;;;0.70;0.70;;;;;;;18.76;46.37;102748.34;5140162;27;20438;-61
2022/04/15 06:52:37;;;;;;;0.73;0.70;;;;;;;18.73;46.52;102754.81;5145158;27;20729;-63
2022/04/15 06:55:04;;;;;;;0.75;0.75;;;;;;;18.74;46.37;102751.19;5145466;27;20030;-62
2022/04/15 06:57:31;;;;;;;0.93;0.90;;;;;;;18.73;46.62;102762.91;5145378;27;20047;-61
2022/04/15 06:59:56;;;;;;;1.13;0.75;;;;;;;18.76;46.53;102761.81;5145487;27;20023;-58
2022/04/15 07:02:22;;;;;;;0.60;0.60;;;;;;;18.75;46.76;102763.66;5143185;27;20558;-61
2022/04/15 07:04:47;;;;;;;0.90;0.73;;;;;;;18.76;46.70;102764.50;5144216;27;20094;-62
2022/04/15 07:07:12;;;;;;;0.82;0.70;;;;;;;18.75;46.57;102769.06;5145318;27;20038;-59
2022/04/15 07:09:37;;;;;;;0.77;0.60;;;;;;;18.74;46.59;102767.34;5145523;27;20035;-61
2022/04/15 07:12:03;;;;;;;1.08;0.98;;;;;;;18.74;46.68;102770.03;5144557;27;20034;-62
2022/04/15 07:14:29;;;;;;;0.88;0.80;;;;;;;18.72;46.73;102770.13;5127110;27;20019;-58
2022/04/15 07:16:54;;;;;;;0.70;0.70;;;;;;;18.71;47.02;102768.44;5143569;27;20038;-62
2022/04/15 07:19:20;;;;;;;1.23;0.70;;;;;;;18.70;47.05;102773.97;5145146;27;20023;-62
2022/04/15 07:21:45;;;;;;;0.80;0.80;;;;;;;18.69;47.12;102767.72;5143775;27;20041;-58
2022/04/15 07:24:10;;;;;;;0.60;0.60;;;;;;;18.70;47.12;102768.56;5144685;27;20046;-59
2022/04/15 07:26:36;;;;;;;1.73;0.70;;;;;;;18.67;47.14;102775.00;5143428;27;20050;-60
2022/04/15 07:29:03;;;;;;;0.73;0.68;;;;;;;18.68;47.01;102774.03;5144706;27;20103;-56
2022/04/15 07:31:28;;;;;;;0.70;0.70;;;;;;;18.68;47.18;102781.25;5125900;27;20035;-58
2022/04/15 07:33:54;;;;;;;0.70;0.70;;;;;;;18.67;46.99;102785.78;5144765;27;20051;-62
2022/04/15 07:36:42;;;;;;;1.08;0.90;;;;;;;18.68;46.93;102782.09;5144923;27;20472;-61
2022/04/15 07:39:12;;;;;;;1.13;0.90;;;;;;;18.66;47.09;102780.53;5126214;27;20066;-60
2022/04/15 07:41:38;;;;;;;0.80;0.80;;;;;;;18.65;46.94;102779.69;5139951;27;20031;-63
2022/04/15 07:44:04;;;;;;;0.77;0.60;;;;;;;18.63;47.11;102773.53;5141530;27;20030;-62
2022/04/15 07:46:30;;;;;;;0.93;0.70;;;;;;;18.65;47.01;102782.38;5125604;27;20092;-59
2022/04/15 07:48:55;;;;;;;0.80;0.80;;;;;;;18.64;47.20;102783.31;5144431;27;20437;-61
2022/04/15 07:51:20;;;;;;;1.08;0.77;;;;;;;18.66;47.09;102785.91;5144261;27;20023;-59
2022/04/15 07:53:46;;;;;;;0.65;0.50;;;;;;;18.65;47.16;102786.91;5144243;27;20027;-57
2022/04/15 07:56:11;;;;;;;0.85;0.70;;;;;;;18.66;47.12;102796.69;5144845;27;20031;-59
2022/04/15 07:58:36;;;;;;;0.70;0.70;;;;;;;18.66;46.92;102794.00;5142938;27;20031;-60
2022/04/15 08:01:01;;;;;;;1.05;0.80;;;;;;;18.65;47.03;102797.69;5144446;27;20027;-61
2022/04/15 08:03:27;;;;;;;0.82;0.77;;;;;;;18.66;47.07;102794.00;5144295;27;20030;-60
2022/04/15 08:05:54;;;;;;;0.70;0.70;;;;;;;18.65;47.11;102798.53;5144765;27;20035;-59
2022/04/15 08:08:19;;;;;;;1.00;0.90;;;;;;;18.65;47.16;102792.28;5143839;27;20019;-59
2022/04/15 08:10:45;;;;;;;1.52;1.00;;;;;;;18.65;47.11;102800.38;5144531;27;20164;-59
2022/04/15 08:13:10;;;;;;;1.00;0.75;;;;;;;18.65;47.15;102800.38;5124686;27;20038;-58
2022/04/15 08:15:35;;;;;;;0.70;0.70;;;;;;;18.63;47.20;102805.00;5144257;27;20048;-58
2022/04/15 08:18:01;;;;;;;3.70;0.90;;;;;;;18.66;47.34;102808.31;5143589;27;20086;-59
2022/04/15 08:20:26;;;;;;;1.80;0.80;;;;;;;18.69;47.31;102810.81;5144334;27;20035;-58
2022/04/15 08:22:51;;;;;;;1.83;0.85;;;;;;;18.70;46.99;102808.97;5143398;27;20054;-58
2022/04/15 08:25:16;;;;;;;0.50;0.50;;;;;;;18.73;46.97;102812.31;5144397;27;20031;-59
2022/04/15 08:27:42;;;;;;;0.55;0.50;;;;;;;18.75;46.87;102814.00;5143329;27;20043;-59
2022/04/15 08:30:07;;;;;;;0.50;0.50;;;;;;;18.76;46.80;102815.72;5144120;27;20027;-58
2022/04/15 08:32:33;;;;;;;0.43;0.43;;;;;;;18.77;46.73;102814.72;5143720;27;20054;-59
2022/04/15 08:35:02;;;;;;;0.50;0.50;;;;;;;18.77;46.96;102807.50;5145249;27;20027;-54
2022/04/15 08:37:27;;;;;;;0.65;0.65;;;;;;;18.75;46.54;102800.53;5145365;27;20033;-52
2022/04/15 08:39:53;;;;;;;0.50;0.50;;;;;;;18.80;46.68;102809.09;5145553;27;20158;-52
2022/04/15 08:42:19;;;;;;;0.57;0.50;;;;;;;18.81;46.60;102808.13;5145522;27;20051;-53
2022/04/15 08:44:47;;;;;;;0.50;0.50;;;;;;;18.81;46.75;102808.13;5145312;27;20054;-51
2022/04/15 08:47:12;;;;;;;0.45;0.45;;;;;;;18.81;46.58;102808.13;5145524;27;20031;-48
2022/04/15 08:49:38;;;;;;;0.75;0.50;;;;;;;18.79;46.40;102810.94;5145107;27;20027;-51
2022/04/15 08:52:04;;;;;;;0.60;0.60;;;;;;;18.79;46.65;102810.09;5127080;27;20058;-53
2022/04/15 08:54:31;;;;;;;0.50;0.50;;;;;;;18.80;46.47;102820.75;5145059;27;20023;-48
2022/04/15 08:56:56;;;;;;;0.50;0.50;;;;;;;18.73;46.38;102806.91;5145345;27;20019;-48
2022/04/15 08:59:21;;;;;;;0.50;0.40;;;;;;;18.79;46.73;102820.88;5145222;27;20555;-50
2022/04/15 09:01:46;;;;;;;1.27;0.40;;;;;;;18.76;46.66;102818.41;5145336;27;20062;-54
2022/04/15 09:04:12;;;;;;;0.60;0.60;;;;;;;18.78;46.53;102829.94;5145063;27;20035;-50
2022/04/15 09:06:41;;;;;;;0.60;0.60;;;;;;;18.78;46.61;102827.25;5144973;27;20027;-51
2022/04/15 09:09:11;;;;;;;0.60;0.50;;;;;;;18.78;46.67;102836.19;5145005;27;20365;-50
2022/04/15 09:11:38;;;;;;;0.50;0.50;;;;;;;18.77;46.11;102829.06;5145400;27;20030;-51
2022/04/15 09:14:11;;;;;;;0.82;0.77;;;;;;;18.78;46.52;102829.94;5135052;27;20031;-52
2022/04/15 09:16:40;;;;;;;0.80;0.68;;;;;;;18.78;46.26;102833.50;5139016;27;20049;-53
2022/04/15 09:19:07;;;;;;;0.60;0.60;;;;;;;18.77;46.37;102841.66;5137936;27;20046;-51
2022/04/15 09:21:32;;;;;;;0.50;0.50;;;;;;;18.72;46.64;102834.81;5119446;27;20239;-52
2022/04/15 09:23:58;;;;;;;0.50;0.50;;;;;;;18.75;46.84;102849.88;5144874;27;20048;-50
2022/04/15 09:26:24;;;;;;;0.52;0.52;;;;;;;18.75;46.75;102851.72;5145200;27;20059;-48
2022/04/15 09:28:50;;;;;;;0.40;0.40;;;;;;;18.74;46.57;102856.25;5144610;27;20065;-49
2022/04/15 09:31:17;;;;;;;0.55;0.50;;;;;;;18.75;46.41;102857.97;5144984;27;20027;-50
2022/04/15 09:33:50;;;;;;;0.50;0.50;;;;;;;18.73;46.43;102849.13;5144629;27;20038;-51
2022/04/15 09:36:25;;;;;;;0.60;0.60;;;;;;;18.76;46.33;102861.53;5144805;27;20023;-54
2022/04/15 09:38:55;;;;;;;0.50;0.50;;;;;;;18.72;46.15;102850.13;5125763;27;20109;-59
2022/04/15 09:41:21;;;;;;;0.55;0.55;;;;;;;18.76;45.98;102857.00;5145090;27;20030;-55
2022/04/15 09:43:53;;;;;;;0.60;0.60;;;;;;;18.75;46.00;102857.13;5144306;27;20027;-55
2022/04/15 09:46:19;;;;;;;0.55;0.52;;;;;;;18.76;45.95;102858.81;5144314;27;20035;-55
2022/04/15 09:49:06;;;;;;;0.60;0.50;;;;;;;18.73;45.98;102859.91;5144151;27;20118;-56
2022/04/15 09:51:37;;;;;;;0.50;0.50;;;;;;;18.72;45.89;102858.22;5144619;27;20110;-54
2022/04/15 09:54:04;;;;;;;0.60;0.50;;;;;;;18.73;46.16;102863.50;5144017;27;20023;-53
2022/04/15 09:56:32;;;;;;;0.40;0.40;;;;;;;18.73;45.87;102863.50;5144086;27;20080;-55
2022/04/15 09:59:03;;;;;;;0.43;0.43;;;;;;;18.56;46.00;102836.09;5143895;27;20027;-56
2022/04/15 10:01:30;;;;;;;0.55;0.50;;;;;;;18.72;45.81;102871.69;5144296;27;20033;-55
2022/04/15 10:03:55;;;;;;;1.02;0.50;;;;;;;18.71;46.12;102867.28;5143974;27;20082;-55
2022/04/15 10:06:21;;;;;;;0.68;0.50;;;;;;;18.71;45.89;102869.97;5125345;28;20023;-52
2022/04/15 10:08:46;;;;;;;0.32;0.32;;;;;;;18.72;46.00;102875.22;5143159;27;20035;-55
2022/04/15 10:11:12;;;;;;;0.50;0.50;;;;;;;18.68;45.89;102868.31;5138945;28;20027;-52
2022/04/15 10:13:38;;;;;;;0.57;0.55;;;;;;;18.72;45.89;102879.75;5135220;28;20342;-55
2022/04/15 10:16:04;;;;;;;0.60;0.60;;;;;;;18.73;45.86;102876.09;5117199;28;20028;-53
2022/04/15 10:18:29;;;;;;;0.50;0.50;;;;;;;18.72;45.89;102874.38;5125502;28;20023;-55
2022/04/15 10:20:55;;;;;;;0.60;0.60;;;;;;;18.71;45.68;102878.91;5145948;27;20110;-52
2022/04/15 10:23:22;;;;;;;0.82;0.68;;;;;;;18.72;45.80;102879.75;5148567;27;20038;-55
2022/04/15 10:25:49;;;;;;;0.63;0.50;;;;;;;18.69;45.81;102879.97;5148765;27;20027;-56
2022/04/15 10:28:18;;;;;;;0.40;0.40;;;;;;;18.73;45.83;102884.16;5129562;27;20019;-55
2022/04/15 10:31:04;;;;;;;0.50;0.50;;;;;;;18.73;45.54;102886.84;5141657;27;20027;-54
2022/04/15 10:33:31;;;;;;;0.65;0.60;;;;;;;18.71;45.73;102887.00;5147669;27;20027;-50
2022/04/15 10:36:22;;;;;;;0.50;0.50;;;;;;;18.74;45.99;102894.00;5145315;27;20034;-53
2022/04/15 10:39:06;;;;;;;0.40;0.40;;;;;;;18.73;45.59;102893.13;5127730;27;20087;-54
2022/04/15 10:41:41;;;;;;;0.40;0.40;;;;;;;18.72;45.68;102891.41;5146583;27;20035;-56
2022/04/15 10:44:07;;;;;;;0.50;0.50;;;;;;;18.71;45.50;102889.69;5143465;27;20080;-55
2022/04/15 10:46:35;;;;;;;0.75;0.70;;;;;;;18.71;45.91;102887.00;5147254;27;20039;-55
2022/04/15 10:49:02;;;;;;;0.60;0.60;;;;;;;18.66;45.96;102881.06;5141594;27;20063;-54
2022/04/15 10:51:32;;;;;;;0.65;0.50;;;;;;;18.71;46.01;102888.84;5144780;27;20031;-56
2022/04/15 10:54:35;;;;;;;0.50;0.50;;;;;;;18.72;45.66;102885.16;5123201;27;20380;-53
2022/04/15 10:57:02;;;;;;;0.50;0.50;;;;;;;18.69;45.50;102890.72;5140043;27;20019;-54
2022/04/15 11:02:20;;;;;;;1.38;0.60;;;;;;;18.71;45.87;102886.13;5137966;27;20034;-54
2022/04/15 11:04:49;;;;;;;0.68;0.50;;;;;;;18.72;45.77;102886.00;5128362;27;20031;-55
2022/04/15 11:07:42;;;;;;;0.50;0.50;;;;;;;18.69;45.79;102882.66;5138476;27;20023;-54
2022/04/15 11:10:40;;;;;;;0.40;0.40;;;;;;;18.72;45.67;102890.53;5147748;27;20049;-55
2022/04/15 11:13:09;;;;;;;0.43;0.40;;;;;;;18.69;45.62;102893.44;5147331;27;20020;-55
2022/04/15 11:15:57;;;;;;;0.40;0.40;;;;;;;18.70;45.80;102893.38;5147835;27;20027;-55
2022/04/15 11:18:23;;;;;;;0.47;0.47;;;;;;;18.70;45.53;102900.59;5147352;27;20058;-55
2022/04/15 11:20:48;;;;;;;0.50;0.50;;;;;;;18.67;45.63;102896.25;5147840;27;20019;-53
2022/04/15 11:23:14;;;;;;;0.50;0.50;;;;;;;18.70;45.41;102897.91;5147347;27;20091;-55
2022/04/15 11:25:45;;;;;;;0.50;0.50;;;;;;;18.71;45.87;102905.00;5147431;27;20027;-55